sensor_id;sensor_type;location;lat;lon;timestamp;temperature;humidity
10530;DHT22;5313;48.834;9.228;2022-11-15T00:00:47;10.70;99.90
10530;DHT22;5313;48.834;9.228;2022-11-15T00:03:17;10.70;99.90
10530;DHT22;5313;48.834;9.228;2022-11-15T00:05:44;10.70;99.90
10530;DHT22;5313;48.834;9.228;2022-11-15T00:08:09;10.60;99.90
10530;DHT22;5313;48.834;9.228;2022-11-15T00:10:35;10.50;99.90
10530;DHT22;5313;48.834;9.228;2022-11-15T00:13:05;10.40;99.90
10530;DHT22;5313;48.834;9.228;2022-11-15T00:15:31;10.30;99.90
10530;DHT22;5313;48.834;9.228;2022-11-15T00:17:56;10.30;99.90
10530;DHT22;5313;48.834;9.228;2022-11-15T00:20:22;10.20;99.90
10530;DHT22;5313;48.834;9.228;2022-11-15T00:22:47;10.20;99.90
10530;DHT22;5313;48.834;9.228;2022-11-15T00:25:13;10.20;99.90
10530;DHT22;5313;48.834;9.228;2022-11-15T00:27:38;10.20;99.90
10530;DHT22;5313;48.834;9.228;2022-11-15T00:30:04;10.10;99.90
10530;DHT22;5313;48.834;9.228;2022-11-15T00:32:33;10.10;99.90
10530;DHT22;5313;48.834;9.228;2022-11-15T00:34:58;10.10;99.90
10530;DHT22;5313;48.834;9.228;2022-11-15T00:37:24;10.10;99.90
10530;DHT22;5313;48.834;9.228;2022-11-15T00:39:49;10.10;99.90
10530;DHT22;5313;48.834;9.228;2022-11-15T00:42:15;10.20;99.90
10530;DHT22;5313;48.834;9.228;2022-11-15T00:44:40;10.20;99.90
10530;DHT22;5313;48.834;9.228;2022-11-15T00:47:06;10.20;99.90
10530;DHT22;5313;48.834;9.228;2022-11-15T00:49:31;10.30;99.90
10530;DHT22;5313;48.834;9.228;2022-11-15T00:51:57;10.40;99.90
10530;DHT22;5313;48.834;9.228;2022-11-15T00:54:22;10.50;99.90
10530;DHT22;5313;48.834;9.228;2022-11-15T00:56:48;10.50;99.90
10530;DHT22;5313;48.834;9.228;2022-11-15T00:59:13;10.50;99.90
10530;DHT22;5313;48.834;9.228;2022-11-15T01:01:39;10.40;99.90
10530;DHT22;5313;48.834;9.228;2022-11-15T01:04:04;10.40;99.90
10530;DHT22;5313;48.834;9.228;2022-11-15T01:06:30;10.30;99.90
10530;DHT22;5313;48.834;9.228;2022-11-15T01:08:55;10.10;99.90
10530;DHT22;5313;48.834;9.228;2022-11-15T01:11:21;9.70;99.90
10530;DHT22;5313;48.834;9.228;2022-11-15T01:13:46;9.60;99.90
10530;DHT22;5313;48.834;9.228;2022-11-15T01:16:17;9.50;99.90
10530;DHT22;5313;48.834;9.228;2022-11-15T01:18:44;9.40;99.90
10530;DHT22;5313;48.834;9.228;2022-11-15T01:21:12;9.40;99.90
10530;DHT22;5313;48.834;9.228;2022-11-15T01:23:38;9.40;99.90
10530;DHT22;5313;48.834;9.228;2022-11-15T01:26:05;9.40;99.90
10530;DHT22;5313;48.834;9.228;2022-11-15T01:28:35;9.30;99.90
10530;DHT22;5313;48.834;9.228;2022-11-15T01:31:03;9.30;99.90
10530;DHT22;5313;48.834;9.228;2022-11-15T01:33:29;9.50;99.90
10530;DHT22;5313;48.834;9.228;2022-11-15T01:35:55;9.60;99.90
10530;DHT22;5313;48.834;9.228;2022-11-15T01:38:21;9.70;99.90
10530;DHT22;5313;48.834;9.228;2022-11-15T01:40:48;9.70;99.90
10530;DHT22;5313;48.834;9.228;2022-11-15T01:43:28;9.70;99.90
10530;DHT22;5313;48.834;9.228;2022-11-15T01:46:04;9.70;99.90
10530;DHT22;5313;48.834;9.228;2022-11-15T01:48:34;9.70;99.90
10530;DHT22;5313;48.834;9.228;2022-11-15T01:51:01;9.60;99.90
10530;DHT22;5313;48.834;9.228;2022-11-15T01:53:30;9.50;99.90
10530;DHT22;5313;48.834;9.228;2022-11-15T01:55:57;9.20;99.90
10530;DHT22;5313;48.834;9.228;2022-11-15T01:58:24;9.10;99.90
10530;DHT22;5313;48.834;9.228;2022-11-15T02:00:50;8.90;99.90
10530;DHT22;5313;48.834;9.228;2022-11-15T02:03:17;8.80;99.90
10530;DHT22;5313;48.834;9.228;2022-11-15T02:05:43;8.70;99.90
10530;DHT22;5313;48.834;9.228;2022-11-15T02:08:10;8.60;99.90
10530;DHT22;5313;48.834;9.228;2022-11-15T02:10:48;8.60;99.90
10530;DHT22;5313;48.834;9.228;2022-11-15T02:13:17;8.70;99.90
10530;DHT22;5313;48.834;9.228;2022-11-15T02:18:44;9.00;99.90
10530;DHT22;5313;48.834;9.228;2022-11-15T02:24:28;9.00;99.90
10530;DHT22;5313;48.834;9.228;2022-11-15T02:30:23;9.10;99.90
10530;DHT22;5313;48.834;9.228;2022-11-15T02:32:58;9.20;99.90
10530;DHT22;5313;48.834;9.228;2022-11-15T02:35:36;9.20;99.90
10530;DHT22;5313;48.834;9.228;2022-11-15T02:41:13;9.20;99.90
10530;DHT22;5313;48.834;9.228;2022-11-15T02:43:47;9.20;99.90
10530;DHT22;5313;48.834;9.228;2022-11-15T02:49:10;9.10;99.90
10530;DHT22;5313;48.834;9.228;2022-11-15T02:51:36;9.00;99.90
10530;DHT22;5313;48.834;9.228;2022-11-15T02:54:03;9.00;99.90
10530;DHT22;5313;48.834;9.228;2022-11-15T02:56:29;9.00;99.90
10530;DHT22;5313;48.834;9.228;2022-11-15T02:59:13;9.00;99.90
10530;DHT22;5313;48.834;9.228;2022-11-15T03:04:39;8.90;99.90
10530;DHT22;5313;48.834;9.228;2022-11-15T03:07:18;8.90;99.90
10530;DHT22;5313;48.834;9.228;2022-11-15T03:10:02;8.80;99.90
10530;DHT22;5313;48.834;9.228;2022-11-15T03:12:36;8.70;99.90
10530;DHT22;5313;48.834;9.228;2022-11-15T03:17:41;8.50;99.90
10530;DHT22;5313;48.834;9.228;2022-11-15T03:20:08;8.40;99.90
10530;DHT22;5313;48.834;9.228;2022-11-15T03:22:38;8.40;99.90
10530;DHT22;5313;48.834;9.228;2022-11-15T03:25:07;8.30;99.90
10530;DHT22;5313;48.834;9.228;2022-11-15T03:27:38;8.20;99.90
10530;DHT22;5313;48.834;9.228;2022-11-15T03:30:07;8.20;99.90
10530;DHT22;5313;48.834;9.228;2022-11-15T03:32:37;8.20;99.90
10530;DHT22;5313;48.834;9.228;2022-11-15T03:35:10;8.10;99.90
10530;DHT22;5313;48.834;9.228;2022-11-15T03:37:53;8.00;99.90
10530;DHT22;5313;48.834;9.228;2022-11-15T03:40:27;7.90;99.90
10530;DHT22;5313;48.834;9.228;2022-11-15T03:45:33;7.80;99.90
10530;DHT22;5313;48.834;9.228;2022-11-15T03:48:14;7.80;99.90
10530;DHT22;5313;48.834;9.228;2022-11-15T03:50:42;7.90;99.90
10530;DHT22;5313;48.834;9.228;2022-11-15T03:53:09;7.90;99.90
10530;DHT22;5313;48.834;9.228;2022-11-15T03:55:35;7.90;99.90
10530;DHT22;5313;48.834;9.228;2022-11-15T03:58:01;8.00;99.90
10530;DHT22;5313;48.834;9.228;2022-11-15T04:00:28;8.00;99.90
10530;DHT22;5313;48.834;9.228;2022-11-15T04:02:54;7.90;99.90
10530;DHT22;5313;48.834;9.228;2022-11-15T04:05:19;7.90;99.90
10530;DHT22;5313;48.834;9.228;2022-11-15T04:07:45;7.90;99.90
10530;DHT22;5313;48.834;9.228;2022-11-15T04:10:11;7.80;99.90
10530;DHT22;5313;48.834;9.228;2022-11-15T04:12:40;7.90;99.90
10530;DHT22;5313;48.834;9.228;2022-11-15T04:15:10;7.90;99.90
10530;DHT22;5313;48.834;9.228;2022-11-15T04:17:44;7.90;99.90
10530;DHT22;5313;48.834;9.228;2022-11-15T04:20:11;8.00;99.90
10530;DHT22;5313;48.834;9.228;2022-11-15T04:22:56;8.10;99.90
10530;DHT22;5313;48.834;9.228;2022-11-15T04:25:53;8.10;99.90
10530;DHT22;5313;48.834;9.228;2022-11-15T04:28:19;8.20;99.90
10530;DHT22;5313;48.834;9.228;2022-11-15T04:30:45;8.20;99.90
10530;DHT22;5313;48.834;9.228;2022-11-15T04:33:11;8.20;99.90
10530;DHT22;5313;48.834;9.228;2022-11-15T04:35:36;8.20;99.90
10530;DHT22;5313;48.834;9.228;2022-11-15T04:38:04;8.30;99.90
10530;DHT22;5313;48.834;9.228;2022-11-15T04:40:30;8.20;99.90
10530;DHT22;5313;48.834;9.228;2022-11-15T04:42:55;8.20;99.90
10530;DHT22;5313;48.834;9.228;2022-11-15T04:45:21;8.20;99.90
10530;DHT22;5313;48.834;9.228;2022-11-15T04:47:46;8.20;99.90
10530;DHT22;5313;48.834;9.228;2022-11-15T04:50:13;8.30;99.90
10530;DHT22;5313;48.834;9.228;2022-11-15T04:52:46;8.30;99.90
10530;DHT22;5313;48.834;9.228;2022-11-15T04:55:14;8.30;99.90
10530;DHT22;5313;48.834;9.228;2022-11-15T04:57:40;8.30;99.90
10530;DHT22;5313;48.834;9.228;2022-11-15T05:00:08;8.30;99.90
10530;DHT22;5313;48.834;9.228;2022-11-15T05:02:34;8.30;99.90
10530;DHT22;5313;48.834;9.228;2022-11-15T05:05:18;8.30;99.90
10530;DHT22;5313;48.834;9.228;2022-11-15T05:07:44;8.20;99.90
10530;DHT22;5313;48.834;9.228;2022-11-15T05:10:09;8.20;99.90
10530;DHT22;5313;48.834;9.228;2022-11-15T05:12:35;8.20;99.90
10530;DHT22;5313;48.834;9.228;2022-11-15T05:15:01;8.20;99.90
10530;DHT22;5313;48.834;9.228;2022-11-15T05:17:27;8.20;99.90
10530;DHT22;5313;48.834;9.228;2022-11-15T05:19:52;8.10;99.90
10530;DHT22;5313;48.834;9.228;2022-11-15T05:22:19;8.10;99.90
10530;DHT22;5313;48.834;9.228;2022-11-15T05:24:44;8.20;99.90
10530;DHT22;5313;48.834;9.228;2022-11-15T05:27:10;8.10;99.90
10530;DHT22;5313;48.834;9.228;2022-11-15T05:29:35;8.10;99.90
10530;DHT22;5313;48.834;9.228;2022-11-15T05:32:03;8.00;99.90
10530;DHT22;5313;48.834;9.228;2022-11-15T05:34:30;7.80;99.90
10530;DHT22;5313;48.834;9.228;2022-11-15T05:36:56;7.80;99.90
10530;DHT22;5313;48.834;9.228;2022-11-15T05:39:21;7.70;99.90
10530;DHT22;5313;48.834;9.228;2022-11-15T05:42:01;7.70;99.90
10530;DHT22;5313;48.834;9.228;2022-11-15T05:44:31;7.70;99.90
10530;DHT22;5313;48.834;9.228;2022-11-15T05:46:57;7.80;99.90
10530;DHT22;5313;48.834;9.228;2022-11-15T05:49:26;7.80;99.90
10530;DHT22;5313;48.834;9.228;2022-11-15T05:51:53;7.80;99.90
10530;DHT22;5313;48.834;9.228;2022-11-15T05:54:19;7.80;99.90
10530;DHT22;5313;48.834;9.228;2022-11-15T05:56:47;7.90;99.90
10530;DHT22;5313;48.834;9.228;2022-11-15T05:59:13;7.90;99.90
10530;DHT22;5313;48.834;9.228;2022-11-15T06:01:39;8.00;99.90
10530;DHT22;5313;48.834;9.228;2022-11-15T06:04:05;8.10;99.90
10530;DHT22;5313;48.834;9.228;2022-11-15T06:06:31;8.00;99.90
10530;DHT22;5313;48.834;9.228;2022-11-15T06:08:56;7.90;99.90
10530;DHT22;5313;48.834;9.228;2022-11-15T06:11:22;7.90;99.90
10530;DHT22;5313;48.834;9.228;2022-11-15T06:13:47;7.90;99.90
10530;DHT22;5313;48.834;9.228;2022-11-15T06:16:13;8.00;99.90
10530;DHT22;5313;48.834;9.228;2022-11-15T06:18:38;8.10;99.90
10530;DHT22;5313;48.834;9.228;2022-11-15T06:21:05;8.20;99.90
10530;DHT22;5313;48.834;9.228;2022-11-15T06:23:34;8.20;99.90
10530;DHT22;5313;48.834;9.228;2022-11-15T06:26:01;8.20;99.90
10530;DHT22;5313;48.834;9.228;2022-11-15T06:28:29;8.30;99.90
10530;DHT22;5313;48.834;9.228;2022-11-15T06:30:55;8.20;99.90
10530;DHT22;5313;48.834;9.228;2022-11-15T06:33:21;8.30;99.90
10530;DHT22;5313;48.834;9.228;2022-11-15T06:35:47;8.30;99.90
10530;DHT22;5313;48.834;9.228;2022-11-15T06:38:12;8.30;99.90
10530;DHT22;5313;48.834;9.228;2022-11-15T06:40:38;8.40;99.90
10530;DHT22;5313;48.834;9.228;2022-11-15T06:43:05;8.40;99.90
10530;DHT22;5313;48.834;9.228;2022-11-15T06:45:31;8.50;99.90
10530;DHT22;5313;48.834;9.228;2022-11-15T06:47:57;8.50;99.90
10530;DHT22;5313;48.834;9.228;2022-11-15T06:50:23;8.50;99.90
10530;DHT22;5313;48.834;9.228;2022-11-15T06:52:48;8.50;99.90
10530;DHT22;5313;48.834;9.228;2022-11-15T06:55:14;8.50;99.90
10530;DHT22;5313;48.834;9.228;2022-11-15T06:57:50;8.50;99.90
10530;DHT22;5313;48.834;9.228;2022-11-15T07:00:20;8.40;99.90
10530;DHT22;5313;48.834;9.228;2022-11-15T07:02:46;8.40;99.90
10530;DHT22;5313;48.834;9.228;2022-11-15T07:05:12;8.30;99.90
10530;DHT22;5313;48.834;9.228;2022-11-15T07:07:38;8.20;99.90
10530;DHT22;5313;48.834;9.228;2022-11-15T07:10:04;8.20;99.90
10530;DHT22;5313;48.834;9.228;2022-11-15T07:12:30;8.20;99.90
10530;DHT22;5313;48.834;9.228;2022-11-15T07:14:56;8.20;99.90
10530;DHT22;5313;48.834;9.228;2022-11-15T07:17:21;8.20;99.90
10530;DHT22;5313;48.834;9.228;2022-11-15T07:19:47;8.20;99.90
10530;DHT22;5313;48.834;9.228;2022-11-15T07:22:12;8.30;99.90
10530;DHT22;5313;48.834;9.228;2022-11-15T07:24:38;8.30;99.90
10530;DHT22;5313;48.834;9.228;2022-11-15T07:27:03;8.30;99.90
10530;DHT22;5313;48.834;9.228;2022-11-15T07:29:29;8.30;99.90
10530;DHT22;5313;48.834;9.228;2022-11-15T07:31:54;8.30;99.90
10530;DHT22;5313;48.834;9.228;2022-11-15T07:34:20;8.40;99.90
10530;DHT22;5313;48.834;9.228;2022-11-15T07:36:45;8.50;99.90
10530;DHT22;5313;48.834;9.228;2022-11-15T07:39:11;8.60;99.90
10530;DHT22;5313;48.834;9.228;2022-11-15T07:41:37;8.70;99.90
10530;DHT22;5313;48.834;9.228;2022-11-15T07:44:04;8.80;99.90
10530;DHT22;5313;48.834;9.228;2022-11-15T07:46:30;8.90;99.90
10530;DHT22;5313;48.834;9.228;2022-11-15T07:48:56;9.00;99.90
10530;DHT22;5313;48.834;9.228;2022-11-15T07:51:21;9.10;99.90
10530;DHT22;5313;48.834;9.228;2022-11-15T07:53:47;9.30;99.90
10530;DHT22;5313;48.834;9.228;2022-11-15T07:56:13;9.40;99.90
10530;DHT22;5313;48.834;9.228;2022-11-15T07:58:38;9.60;99.90
10530;DHT22;5313;48.834;9.228;2022-11-15T08:01:05;9.70;99.90
10530;DHT22;5313;48.834;9.228;2022-11-15T08:03:32;9.90;99.90
10530;DHT22;5313;48.834;9.228;2022-11-15T08:05:57;10.00;99.90
10530;DHT22;5313;48.834;9.228;2022-11-15T08:08:23;10.00;99.90
10530;DHT22;5313;48.834;9.228;2022-11-15T08:10:48;10.00;99.90
10530;DHT22;5313;48.834;9.228;2022-11-15T08:13:15;10.00;99.90
10530;DHT22;5313;48.834;9.228;2022-11-15T08:15:41;10.00;99.90
10530;DHT22;5313;48.834;9.228;2022-11-15T08:18:11;10.10;99.90
10530;DHT22;5313;48.834;9.228;2022-11-15T08:20:37;10.30;99.90
10530;DHT22;5313;48.834;9.228;2022-11-15T08:23:04;10.40;99.90
10530;DHT22;5313;48.834;9.228;2022-11-15T08:25:31;10.40;99.90
10530;DHT22;5313;48.834;9.228;2022-11-15T08:27:59;10.40;99.90
10530;DHT22;5313;48.834;9.228;2022-11-15T08:30:25;10.60;99.90
10530;DHT22;5313;48.834;9.228;2022-11-15T08:32:51;10.60;99.90
10530;DHT22;5313;48.834;9.228;2022-11-15T08:35:18;10.60;99.90
10530;DHT22;5313;48.834;9.228;2022-11-15T08:37:44;10.60;99.90
10530;DHT22;5313;48.834;9.228;2022-11-15T08:40:10;10.70;99.90
10530;DHT22;5313;48.834;9.228;2022-11-15T08:42:36;10.90;99.90
10530;DHT22;5313;48.834;9.228;2022-11-15T08:45:02;11.00;99.90
10530;DHT22;5313;48.834;9.228;2022-11-15T08:47:27;11.10;99.90
10530;DHT22;5313;48.834;9.228;2022-11-15T08:49:53;11.10;99.90
10530;DHT22;5313;48.834;9.228;2022-11-15T08:52:19;11.20;99.90
10530;DHT22;5313;48.834;9.228;2022-11-15T08:54:44;11.20;99.90
10530;DHT22;5313;48.834;9.228;2022-11-15T08:57:10;11.40;99.90
10530;DHT22;5313;48.834;9.228;2022-11-15T08:59:36;11.70;99.90
10530;DHT22;5313;48.834;9.228;2022-11-15T09:02:02;11.70;99.90
10530;DHT22;5313;48.834;9.228;2022-11-15T09:04:28;11.60;99.90
10530;DHT22;5313;48.834;9.228;2022-11-15T09:06:53;11.80;99.90
10530;DHT22;5313;48.834;9.228;2022-11-15T09:09:19;12.10;99.90
10530;DHT22;5313;48.834;9.228;2022-11-15T09:11:44;12.40;99.90
10530;DHT22;5313;48.834;9.228;2022-11-15T09:14:14;12.70;99.90
10530;DHT22;5313;48.834;9.228;2022-11-15T09:16:40;12.70;99.90
10530;DHT22;5313;48.834;9.228;2022-11-15T09:19:05;12.70;99.90
10530;DHT22;5313;48.834;9.228;2022-11-15T09:21:31;12.60;99.90
10530;DHT22;5313;48.834;9.228;2022-11-15T09:23:57;12.60;99.90
10530;DHT22;5313;48.834;9.228;2022-11-15T09:26:23;12.60;99.90
10530;DHT22;5313;48.834;9.228;2022-11-15T09:28:49;13.00;99.90
10530;DHT22;5313;48.834;9.228;2022-11-15T09:31:14;15.70;99.90
10530;DHT22;5313;48.834;9.228;2022-11-15T09:33:40;13.60;99.90
10530;DHT22;5313;48.834;9.228;2022-11-15T09:36:08;13.70;99.90
10530;DHT22;5313;48.834;9.228;2022-11-15T09:38:34;13.70;99.90
10530;DHT22;5313;48.834;9.228;2022-11-15T09:46:31;14.40;99.90
10530;DHT22;5313;48.834;9.228;2022-11-15T09:49:00;14.50;99.90
10530;DHT22;5313;48.834;9.228;2022-11-15T09:51:38;14.90;99.90
10530;DHT22;5313;48.834;9.228;2022-11-15T09:54:19;15.00;99.90
10530;DHT22;5313;48.834;9.228;2022-11-15T09:56:46;14.80;99.90
10530;DHT22;5313;48.834;9.228;2022-11-15T10:02:43;15.10;99.90
10530;DHT22;5313;48.834;9.228;2022-11-15T10:05:16;15.00;99.90
10530;DHT22;5313;48.834;9.228;2022-11-15T10:10:42;15.00;99.90
10530;DHT22;5313;48.834;9.228;2022-11-15T10:13:25;14.90;99.90
10530;DHT22;5313;48.834;9.228;2022-11-15T10:15:53;14.50;99.90
10530;DHT22;5313;48.834;9.228;2022-11-15T10:18:35;14.10;99.90
10530;DHT22;5313;48.834;9.228;2022-11-15T10:23:40;13.90;99.90
10530;DHT22;5313;48.834;9.228;2022-11-15T10:26:09;13.90;99.90
10530;DHT22;5313;48.834;9.228;2022-11-15T10:28:36;13.70;99.90
10530;DHT22;5313;48.834;9.228;2022-11-15T10:31:02;13.70;99.90
10530;DHT22;5313;48.834;9.228;2022-11-15T10:33:35;13.70;99.90
10530;DHT22;5313;48.834;9.228;2022-11-15T10:38:59;15.70;99.90
10530;DHT22;5313;48.834;9.228;2022-11-15T10:44:09;14.50;99.90
10530;DHT22;5313;48.834;9.228;2022-11-15T10:46:38;13.60;99.90
10530;DHT22;5313;48.834;9.228;2022-11-15T10:49:24;13.60;99.90
10530;DHT22;5313;48.834;9.228;2022-11-15T10:55:32;13.80;99.90
10530;DHT22;5313;48.834;9.228;2022-11-15T10:57:36;13.70;99.90
10530;DHT22;5313;48.834;9.228;2022-11-15T11:00:26;13.80;99.90
10530;DHT22;5313;48.834;9.228;2022-11-15T11:05:34;13.90;99.90
10530;DHT22;5313;48.834;9.228;2022-11-15T11:08:22;13.90;99.90
10530;DHT22;5313;48.834;9.228;2022-11-15T11:10:55;13.90;99.90
10530;DHT22;5313;48.834;9.228;2022-11-15T11:13:22;13.90;99.90
10530;DHT22;5313;48.834;9.228;2022-11-15T11:18:38;13.90;99.90
10530;DHT22;5313;48.834;9.228;2022-11-15T11:21:13;13.90;99.90
10530;DHT22;5313;48.834;9.228;2022-11-15T11:23:52;13.80;99.90
10530;DHT22;5313;48.834;9.228;2022-11-15T11:26:42;13.80;99.90
10530;DHT22;5313;48.834;9.228;2022-11-15T11:29:31;13.80;99.90
10530;DHT22;5313;48.834;9.228;2022-11-15T11:40:26;13.90;99.90
10530;DHT22;5313;48.834;9.228;2022-11-15T11:43:02;14.00;99.90
10530;DHT22;5313;48.834;9.228;2022-11-15T11:48:50;14.10;99.90
10530;DHT22;5313;48.834;9.228;2022-11-15T11:51:27;14.20;99.90
10530;DHT22;5313;48.834;9.228;2022-11-15T11:56:33;14.30;99.90
10530;DHT22;5313;48.834;9.228;2022-11-15T12:02:09;14.40;99.90
10530;DHT22;5313;48.834;9.228;2022-11-15T12:04:40;14.50;99.90
10530;DHT22;5313;48.834;9.228;2022-11-15T12:07:17;14.50;99.90
10530;DHT22;5313;48.834;9.228;2022-11-15T12:09:59;14.60;99.90
10530;DHT22;5313;48.834;9.228;2022-11-15T12:12:48;14.60;99.90
10530;DHT22;5313;48.834;9.228;2022-11-15T12:15:21;14.70;99.90
10530;DHT22;5313;48.834;9.228;2022-11-15T12:17:48;14.70;99.90
10530;DHT22;5313;48.834;9.228;2022-11-15T12:20:37;14.60;99.90
10530;DHT22;5313;48.834;9.228;2022-11-15T12:23:13;14.60;99.90
10530;DHT22;5313;48.834;9.228;2022-11-15T12:31:03;14.60;99.90
10530;DHT22;5313;48.834;9.228;2022-11-15T12:33:57;14.60;99.90
10530;DHT22;5313;48.834;9.228;2022-11-15T12:41:20;14.50;99.90
10530;DHT22;5313;48.834;9.228;2022-11-15T12:43:47;14.50;99.90
10530;DHT22;5313;48.834;9.228;2022-11-15T12:46:22;15.70;99.90
10530;DHT22;5313;48.834;9.228;2022-11-15T12:49:02;14.40;99.90
10530;DHT22;5313;48.834;9.228;2022-11-15T12:59:55;14.60;99.90
10530;DHT22;5313;48.834;9.228;2022-11-15T13:02:29;14.40;99.90
10530;DHT22;5313;48.834;9.228;2022-11-15T13:17:51;14.30;99.90
10530;DHT22;5313;48.834;9.228;2022-11-15T13:25:31;14.20;99.90
10530;DHT22;5313;48.834;9.228;2022-11-15T13:28:09;14.30;99.90
10530;DHT22;5313;48.834;9.228;2022-11-15T13:30:36;14.30;99.90
10530;DHT22;5313;48.834;9.228;2022-11-15T13:33:13;14.30;99.90
10530;DHT22;5313;48.834;9.228;2022-11-15T13:35:51;14.10;99.90
10530;DHT22;5313;48.834;9.228;2022-11-15T13:38:31;14.30;99.90
10530;DHT22;5313;48.834;9.228;2022-11-15T13:40:58;14.30;99.90
10530;DHT22;5313;48.834;9.228;2022-11-15T13:43:36;14.40;99.90
10530;DHT22;5313;48.834;9.228;2022-11-15T13:48:44;14.30;99.90
10530;DHT22;5313;48.834;9.228;2022-11-15T13:53:58;17.60;99.90
10530;DHT22;5313;48.834;9.228;2022-11-15T13:56:27;14.20;99.90
10530;DHT22;5313;48.834;9.228;2022-11-15T13:58:56;14.20;99.90
10530;DHT22;5313;48.834;9.228;2022-11-15T14:01:22;14.10;99.90
10530;DHT22;5313;48.834;9.228;2022-11-15T14:03:55;14.80;99.90
10530;DHT22;5313;48.834;9.228;2022-11-15T14:06:23;14.10;99.90
10530;DHT22;5313;48.834;9.228;2022-11-15T14:11:36;14.10;99.90
10530;DHT22;5313;48.834;9.228;2022-11-15T14:14:12;14.00;99.90
10530;DHT22;5313;48.834;9.228;2022-11-15T14:19:06;13.90;99.90
10530;DHT22;5313;48.834;9.228;2022-11-15T14:21:34;13.70;99.90
10530;DHT22;5313;48.834;9.228;2022-11-15T14:24:19;13.60;99.90
10530;DHT22;5313;48.834;9.228;2022-11-15T14:26:45;13.50;99.90
10530;DHT22;5313;48.834;9.228;2022-11-15T14:31:52;13.30;99.90
10530;DHT22;5313;48.834;9.228;2022-11-15T14:34:18;13.20;99.90
10530;DHT22;5313;48.834;9.228;2022-11-15T14:36:44;13.10;99.90
10530;DHT22;5313;48.834;9.228;2022-11-15T14:39:09;13.10;99.90
10530;DHT22;5313;48.834;9.228;2022-11-15T14:41:36;13.00;99.90
10530;DHT22;5313;48.834;9.228;2022-11-15T14:44:05;12.90;99.90
10530;DHT22;5313;48.834;9.228;2022-11-15T14:46:31;12.90;99.90
10530;DHT22;5313;48.834;9.228;2022-11-15T14:48:57;12.90;99.90
10530;DHT22;5313;48.834;9.228;2022-11-15T14:51:22;12.80;99.90
10530;DHT22;5313;48.834;9.228;2022-11-15T14:53:48;12.80;99.90
10530;DHT22;5313;48.834;9.228;2022-11-15T14:56:14;12.70;99.90
10530;DHT22;5313;48.834;9.228;2022-11-15T14:58:41;12.70;99.90
10530;DHT22;5313;48.834;9.228;2022-11-15T15:01:20;12.70;99.90
10530;DHT22;5313;48.834;9.228;2022-11-15T15:03:46;12.70;99.90
10530;DHT22;5313;48.834;9.228;2022-11-15T15:06:11;12.70;99.90
10530;DHT22;5313;48.834;9.228;2022-11-15T15:08:39;12.70;99.90
10530;DHT22;5313;48.834;9.228;2022-11-15T15:11:13;12.70;99.90
10530;DHT22;5313;48.834;9.228;2022-11-15T15:13:39;12.60;99.90
10530;DHT22;5313;48.834;9.228;2022-11-15T15:16:05;12.70;99.90
10530;DHT22;5313;48.834;9.228;2022-11-15T15:18:31;12.70;99.90
10530;DHT22;5313;48.834;9.228;2022-11-15T15:20:58;12.70;99.90
10530;DHT22;5313;48.834;9.228;2022-11-15T15:23:33;12.70;99.90
10530;DHT22;5313;48.834;9.228;2022-11-15T15:26:00;12.70;99.90
10530;DHT22;5313;48.834;9.228;2022-11-15T15:28:26;12.70;99.90
10530;DHT22;5313;48.834;9.228;2022-11-15T15:30:51;12.70;99.90
10530;DHT22;5313;48.834;9.228;2022-11-15T15:33:18;12.70;99.90
10530;DHT22;5313;48.834;9.228;2022-11-15T15:35:43;12.70;99.90
10530;DHT22;5313;48.834;9.228;2022-11-15T15:38:11;12.70;99.90
10530;DHT22;5313;48.834;9.228;2022-11-15T15:40:37;12.70;99.90
10530;DHT22;5313;48.834;9.228;2022-11-15T15:43:03;12.60;99.90
10530;DHT22;5313;48.834;9.228;2022-11-15T15:45:28;12.50;99.90
10530;DHT22;5313;48.834;9.228;2022-11-15T15:47:55;12.30;99.90
10530;DHT22;5313;48.834;9.228;2022-11-15T15:50:27;12.30;99.90
10530;DHT22;5313;48.834;9.228;2022-11-15T15:52:55;12.30;99.90
10530;DHT22;5313;48.834;9.228;2022-11-15T15:55:21;12.30;99.90
10530;DHT22;5313;48.834;9.228;2022-11-15T15:57:47;12.30;99.90
10530;DHT22;5313;48.834;9.228;2022-11-15T16:00:13;12.30;99.90
10530;DHT22;5313;48.834;9.228;2022-11-15T16:02:39;12.30;99.90
10530;DHT22;5313;48.834;9.228;2022-11-15T16:05:05;12.20;99.90
10530;DHT22;5313;48.834;9.228;2022-11-15T16:07:31;12.30;99.90
10530;DHT22;5313;48.834;9.228;2022-11-15T16:09:57;12.30;99.90
10530;DHT22;5313;48.834;9.228;2022-11-15T16:12:33;12.30;99.90
10530;DHT22;5313;48.834;9.228;2022-11-15T16:15:00;12.20;99.90
10530;DHT22;5313;48.834;9.228;2022-11-15T16:17:32;12.30;99.90
10530;DHT22;5313;48.834;9.228;2022-11-15T16:19:58;12.20;99.90
10530;DHT22;5313;48.834;9.228;2022-11-15T16:22:23;12.20;99.90
10530;DHT22;5313;48.834;9.228;2022-11-15T16:24:49;12.30;99.90
10530;DHT22;5313;48.834;9.228;2022-11-15T16:27:19;12.30;99.90
10530;DHT22;5313;48.834;9.228;2022-11-15T16:29:46;12.40;99.90
10530;DHT22;5313;48.834;9.228;2022-11-15T16:32:12;12.40;99.90
10530;DHT22;5313;48.834;9.228;2022-11-15T16:34:38;12.20;99.90
10530;DHT22;5313;48.834;9.228;2022-11-15T16:37:04;12.10;99.90
10530;DHT22;5313;48.834;9.228;2022-11-15T16:39:30;12.10;99.90
10530;DHT22;5313;48.834;9.228;2022-11-15T16:41:57;12.10;99.90
10530;DHT22;5313;48.834;9.228;2022-11-15T16:44:23;12.10;99.90
10530;DHT22;5313;48.834;9.228;2022-11-15T16:46:49;12.10;99.90
10530;DHT22;5313;48.834;9.228;2022-11-15T16:49:17;12.10;99.90
10530;DHT22;5313;48.834;9.228;2022-11-15T16:51:45;12.10;99.90
10530;DHT22;5313;48.834;9.228;2022-11-15T16:54:11;12.10;99.90
10530;DHT22;5313;48.834;9.228;2022-11-15T16:56:38;12.10;99.90
10530;DHT22;5313;48.834;9.228;2022-11-15T16:59:04;12.20;99.90
10530;DHT22;5313;48.834;9.228;2022-11-15T17:01:32;12.10;99.90
10530;DHT22;5313;48.834;9.228;2022-11-15T17:04:00;12.10;99.90
10530;DHT22;5313;48.834;9.228;2022-11-15T17:06:41;12.00;99.90
10530;DHT22;5313;48.834;9.228;2022-11-15T17:09:15;11.90;99.90
10530;DHT22;5313;48.834;9.228;2022-11-15T17:11:41;12.10;99.90
10530;DHT22;5313;48.834;9.228;2022-11-15T17:14:07;12.10;99.90
10530;DHT22;5313;48.834;9.228;2022-11-15T17:16:32;12.20;99.90
10530;DHT22;5313;48.834;9.228;2022-11-15T17:18:59;12.10;99.90
10530;DHT22;5313;48.834;9.228;2022-11-15T17:21:26;12.20;99.90
10530;DHT22;5313;48.834;9.228;2022-11-15T17:23:53;12.20;99.90
10530;DHT22;5313;48.834;9.228;2022-11-15T17:26:19;12.10;99.90
10530;DHT22;5313;48.834;9.228;2022-11-15T17:28:45;12.10;99.90
10530;DHT22;5313;48.834;9.228;2022-11-15T17:31:12;12.00;99.90
10530;DHT22;5313;48.834;9.228;2022-11-15T17:33:39;12.00;99.90
10530;DHT22;5313;48.834;9.228;2022-11-15T17:36:10;12.10;99.90
10530;DHT22;5313;48.834;9.228;2022-11-15T17:38:36;12.20;99.90
10530;DHT22;5313;48.834;9.228;2022-11-15T17:41:13;12.00;99.90
10530;DHT22;5313;48.834;9.228;2022-11-15T17:43:39;12.20;99.90
10530;DHT22;5313;48.834;9.228;2022-11-15T17:46:11;12.20;99.90
10530;DHT22;5313;48.834;9.228;2022-11-15T17:48:37;12.30;99.90
10530;DHT22;5313;48.834;9.228;2022-11-15T17:51:05;12.30;99.90
10530;DHT22;5313;48.834;9.228;2022-11-15T17:53:32;12.30;99.90
10530;DHT22;5313;48.834;9.228;2022-11-15T17:56:06;12.30;99.90
10530;DHT22;5313;48.834;9.228;2022-11-15T17:58:33;12.30;99.90
10530;DHT22;5313;48.834;9.228;2022-11-15T18:03:39;12.30;99.90